Imperial, California
Current Conditions -  °F | °C
As of 3:53 PM on Friday 21 Nov 2014 (Local Time) from KIPL Reporting Station
Clear Clear  
Wind Chill: 72°   Ceiling: Unl
Heat Index: 72°   Visibility: 10mi
Dew Point: 43°   Wind: 6mph
Humidity: 35%   Direction: 310°NW
Pressure: 29.89"   Gusts: NA
Location:  32.85°N, 115.57°W
Report Text: KIPL 212353Z AUTO 31005KT 10SM CLR 22/06 A2989 RMK AO2 SLP120 T02220061 10228 20183 55000
Loading
Personal Weather Stations






























Interactive Weather Map New forecast layout! Learn more

10-Day Weather Forecast

Advertisements
Track Severe Weather on mobile